Time;durP1;ratioP1;P1;durP2;ratioP2;P2;SDS_P1;SDS_P2;PMS_P1;PMS_P2;Temp;Humidity;BMP_temperature;BMP_pressure;BME280_temperature;BME280_humidity;BME280_pressure;Samples;Min_cycle;Max_cycle;Signal;HPM_P1;HPM_P2
2022/03/01 00:00:37;;;;;;;;;;;;;;;;;;5091653;28;19925;-61
2022/03/01 00:03:03;;;;;;;;;;;;;;;;;;5093943;28;19908;-61
2022/03/01 00:05:30;;;;;;;;;;;;;;;;;;5094174;28;19904;-56
2022/03/01 00:07:56;;;;;;;;;;;;;;;;;;5093824;28;19915;-61
2022/03/01 00:10:23;;;;;;;;;;;;;;;;;;5093547;28;20392;-57
2022/03/01 00:12:49;;;;;;;;;;;;;;;;;;5093588;28;20007;-59
2022/03/01 00:15:16;;;;;;;;;;;;;;;;;;5088932;28;19916;-61
2022/03/01 00:17:42;;;;;;;;;;;;;;;;;;5093093;28;19908;-62
2022/03/01 00:20:09;;;;;;;;;;;;;;;;;;5093431;28;20337;-61
2022/03/01 00:22:35;;;;;;;;;;;;;;;;;;5093093;28;20379;-58
2022/03/01 00:25:02;;;;;;;;;;;;;;;;;;5093240;28;19913;-60
2022/03/01 00:27:28;;;;;;;;;;;;;;;;;;5093313;28;19962;-56
2022/03/01 00:29:54;;;;;;;;;;;;;;;;;;5092493;28;19992;-60
2022/03/01 00:32:21;;;;;;;;;;;;;;;;;;5092509;28;19912;-58
2022/03/01 00:34:48;;;;;;;;;;;;;;;;;;5092788;28;19987;-54
2022/03/01 00:37:14;;;;;;;;;;;;;;;;;;5092988;28;19908;-58
2022/03/01 00:39:41;;;;;;;;;;;;;;;;;;5092770;28;19912;-55
2022/03/01 00:42:07;;;;;;;;;;;;;;;;;;5096957;28;19959;-54
2022/03/01 00:44:34;;;;;;;;;;;;;;;;;;5096673;28;19915;-52
2022/03/01 00:47:00;;;;;;;;;;;;;;;;;;5097316;28;19904;-55
2022/03/01 00:49:27;;;;;;;;;;;;;;;;;;5096906;28;19952;-58
2022/03/01 00:51:53;;;;;;;;;;;;;;;;;;5097327;28;19905;-56
2022/03/01 00:54:20;;;;;;;;;;;;;;;;;;5096731;28;20381;-54
2022/03/01 00:56:46;;;;;;;;;;;;;;;;;;5096114;28;20347;-53
2022/03/01 00:59:12;;;;;;;;;;;;;;;;;;5096274;28;19920;-56
2022/03/01 01:01:39;;;;;;;;;;;;;;;;;;5096295;28;19923;-52
2022/03/01 01:04:06;;;;;;;;;;;;;;;;;;5096469;28;19909;-52
2022/03/01 01:06:32;;;;;;;;;;;;;;;;;;5096634;28;19915;-55
2022/03/01 01:08:58;;;;;;;;;;;;;;;;;;5096245;28;19915;-54
2022/03/01 01:11:25;;;;;;;;;;;;;;;;;;5096659;28;19985;-52
2022/03/01 01:13:51;;;;;;;;;;;;;;;;;;5096295;28;19998;-50
2022/03/01 01:16:18;;;;;;;;;;;;;;;;;;5096194;28;19908;-52
2022/03/01 01:18:44;;;;;;;;;;;;;;;;;;5096331;28;19909;-50
2022/03/01 01:21:11;;;;;;;;;;;;;;;;;;5096337;28;19927;-51
2022/03/01 01:23:37;;;;;;;;;;;;;;;;;;5096352;28;19908;-56
2022/03/01 01:26:04;;;;;;;;;;;;;;;;;;5096177;28;19919;-50
2022/03/01 01:28:30;;;;;;;;;;;;;;;;;;5095462;28;20018;-54
2022/03/01 01:30:57;;;;;;;;;;;;;;;;;;5095819;28;19908;-49
2022/03/01 01:33:23;;;;;;;;;;;;;;;;;;5096071;28;19908;-51
2022/03/01 01:35:50;;;;;;;;;;;;;;;;;;5095922;28;20022;-56
2022/03/01 01:38:16;;;;;;;;;;;;;;;;;;5095938;28;19915;-48
2022/03/01 01:40:42;;;;;;;;;;;;;;;;;;5095670;28;20358;-59
2022/03/01 01:43:09;;;;;;;;;;;;;;;;;;5095279;28;20274;-56
2022/03/01 01:45:35;;;;;;;;;;;;;;;;;;5094488;28;19936;-53
2022/03/01 01:48:02;;;;;;;;;;;;;;;;;;5095986;28;20010;-58
2022/03/01 01:50:28;;;;;;;;;;;;;;;;;;5095401;28;19927;-56
2022/03/01 01:52:55;;;;;;;;;;;;;;;;;;5095902;28;19920;-58
2022/03/01 01:55:21;;;;;;;;;;;;;;;;;;5095747;28;19915;-54
2022/03/01 01:57:48;;;;;;;;;;;;;;;;;;5095258;28;19954;-56
2022/03/01 02:00:14;;;;;;;;;;;;;;;;;;5096060;28;19904;-53
2022/03/01 02:02:41;;;;;;;;;;;;;;;;;;5095448;28;19916;-51
2022/03/01 02:05:07;;;;;;;;;;;;;;;;;;5095162;28;19915;-48
2022/03/01 02:07:34;;;;;;;;;;;;;;;;;;5095088;28;19995;-57
2022/03/01 02:10:00;;;;;;;;;;;;;;;;;;5095294;28;19908;-54
2022/03/01 02:12:27;;;;;;;;;;;;;;;;;;5094966;28;19949;-57
2022/03/01 02:14:53;;;;;;;;;;;;;;;;;;5095291;28;19915;-56
2022/03/01 02:17:20;;;;;;;;;;;;;;;;;;5094986;28;19908;-54
2022/03/01 02:19:46;;;;;;;;;;;;;;;;;;5095097;28;19995;-54
2022/03/01 02:22:13;;;;;;;;;;;;;;;;;;5094864;28;19924;-61
2022/03/01 02:24:39;;;;;;;;;;;;;;;;;;5094795;28;19915;-60
2022/03/01 02:27:05;;;;;;;;;;;;;;;;;;5094987;28;20009;-59
2022/03/01 02:29:32;;;;;;;;;;;;;;;;;;5094826;28;19908;-54
2022/03/01 02:31:58;;;;;;;;;;;;;;;;;;5094366;28;20353;-52
2022/03/01 02:34:25;;;;;;;;;;;;;;;;;;5094911;28;19961;-55
2022/03/01 02:36:51;;;;;;;;;;;;;;;;;;5094824;28;19999;-53
2022/03/01 02:39:18;;;;;;;;;;;;;;;;;;5094578;28;19908;-49
2022/03/01 02:41:44;;;;;;;;;;;;;;;;;;5094238;28;19969;-48
2022/03/01 02:44:11;;;;;;;;;;;;;;;;;;5094368;28;19915;-55
2022/03/01 02:46:37;;;;;;;;;;;;;;;;;;5095413;28;19953;-59
2022/03/01 02:49:04;;;;;;;;;;;;;;;;;;5115024;28;19919;-57
2022/03/01 02:51:30;;;;;;;;;;;;;;;;;;5114834;28;19908;-51
2022/03/01 02:53:57;;;;;;;;;;;;;;;;;;5114634;28;19912;-53
2022/03/01 02:56:23;;;;;;;;;;;;;;;;;;5114609;28;20007;-50
2022/03/01 02:58:50;;;;;;;;;;;;;;;;;;5114169;28;19964;-54
2022/03/01 03:01:16;;;;;;;;;;;;;;;;;;5114489;28;20289;-49
2022/03/01 03:03:42;;;;;;;;;;;;;;;;;;5113789;28;19908;-56
2022/03/01 03:06:09;;;;;;;;;;;;;;;;;;5114028;28;19934;-49
2022/03/01 03:08:35;;;;;;;;;;;;;;;;;;5113989;28;19931;-59
2022/03/01 03:11:02;;;;;;;;;;;;;;;;;;5114483;28;20010;-58
2022/03/01 03:13:29;;;;;;;;;;;;;;;;;;5114621;28;20351;-59
2022/03/01 03:15:55;;;;;;;;;;;;;;;;;;5114419;28;19907;-52
2022/03/01 03:18:21;;;;;;;;;;;;;;;;;;5114035;28;20226;-55
2022/03/01 03:20:48;;;;;;;;;;;;;;;;;;5114006;28;19922;-58
2022/03/01 03:23:15;;;;;;;;;;;;;;;;;;5114303;28;19924;-57
2022/03/01 03:25:41;;;;;;;;;;;;;;;;;;5114088;28;19911;-57
2022/03/01 03:28:08;;;;;;;;;;;;;;;;;;5114015;28;19915;-57
2022/03/01 03:30:34;;;;;;;;;;;;;;;;;;5113880;28;19914;-53
2022/03/01 03:33:01;;;;;;;;;;;;;;;;;;5114211;28;20442;-55
2022/03/01 03:35:27;;;;;;;;;;;;;;;;;;5114306;28;19908;-57
2022/03/01 03:37:54;;;;;;;;;;;;;;;;;;5113968;28;19914;-58
2022/03/01 03:40:21;;;;;;;;;;;;;;;;;;5113571;28;20254;-54
2022/03/01 03:42:47;;;;;;;;;;;;;;;;;;5113424;28;19999;-55
2022/03/01 03:45:14;;;;;;;;;;;;;;;;;;5113567;28;20311;-55
2022/03/01 03:47:41;;;;;;;;;;;;;;;;;;5112919;28;19983;-56
2022/03/01 03:50:09;;;;;;;;;;;;;;;;;;5113482;28;19952;-54
2022/03/01 03:52:36;;;;;;;;;;;;;;;;;;5113462;28;20322;-58
2022/03/01 03:55:02;;;;;;;;;;;;;;;;;;5113839;28;20321;-58
2022/03/01 03:57:29;;;;;;;;;;;;;;;;;;5113396;28;19920;-59
2022/03/01 03:59:55;;;;;;;;;;;;;;;;;;5113449;28;19907;-60
2022/03/01 04:02:22;;;;;;;;;;;;;;;;;;5113058;28;19920;-54
2022/03/01 04:04:48;;;;;;;;;;;;;;;;;;5112186;28;20048;-55
2022/03/01 04:07:14;;;;;;;;;;;;;;;;;;5112767;28;20069;-55
2022/03/01 04:09:41;;;;;;;;;;;;;;;;;;5113371;28;19912;-54
2022/03/01 04:12:07;;;;;;;;;;;;;;;;;;5113051;28;19908;-62
2022/03/01 04:14:34;;;;;;;;;;;;;;;;;;5112463;28;19915;-54
2022/03/01 04:17:01;;;;;;;;;;;;;;;;;;5113980;28;19915;-56
2022/03/01 04:19:27;;;;;;;;;;;;;;;;;;5113261;28;19968;-57
2022/03/01 04:21:54;;;;;;;;;;;;;;;;;;5112758;28;19915;-58
2022/03/01 04:24:20;;;;;;;;;;;;;;;;;;5111971;28;19908;-58
2022/03/01 04:26:47;;;;;;;;;;;;;;;;;;5113212;28;19950;-56
2022/03/01 04:29:13;;;;;;;;;;;;;;;;;;5113090;28;19908;-60
2022/03/01 04:31:40;;;;;;;;;;;;;;;;;;5112804;28;19908;-62
2022/03/01 04:34:06;;;;;;;;;;;;;;;;;;5113306;28;20247;-59
2022/03/01 04:36:32;;;;;;;;;;;;;;;;;;5112879;28;20128;-62
2022/03/01 04:38:59;;;;;;;;;;;;;;;;;;5112412;28;19908;-52
2022/03/01 04:41:25;;;;;;;;;;;;;;;;;;5113068;28;19923;-61
2022/03/01 04:43:52;;;;;;;;;;;;;;;;;;5113107;28;19916;-56
2022/03/01 04:46:18;;;;;;;;;;;;;;;;;;5112752;28;19915;-54
2022/03/01 04:48:45;;;;;;;;;;;;;;;;;;5112735;28;19908;-54
2022/03/01 04:51:11;;;;;;;;;;;;;;;;;;5112671;28;19954;-59
2022/03/01 04:53:38;;;;;;;;;;;;;;;;;;5113079;28;19943;-57
2022/03/01 04:56:04;;;;;;;;;;;;;;;;;;5112227;28;19980;-57
2022/03/01 04:58:31;;;;;;;;;;;;;;;;;;5110833;28;20449;-50
2022/03/01 05:00:58;;;;;;;;;;;;;;;;;;5112955;28;20354;-56
2022/03/01 05:03:24;;;;;;;;;;;;;;;;;;5113420;28;19908;-48
2022/03/01 05:05:51;;;;;;;;;;;;;;;;;;5112952;28;19915;-57
2022/03/01 05:08:17;;;;;;;;;;;;;;;;;;5112927;28;20282;-54
2022/03/01 05:10:44;;;;;;;;;;;;;;;;;;5112959;28;20372;-54
2022/03/01 05:13:10;;;;;;;;;;;;;;;;;;5112386;28;20476;-58
2022/03/01 05:15:37;;;;;;;;;;;;;;;;;;5112885;28;20258;-60
2022/03/01 05:18:03;;;;;;;;;;;;;;;;;;5112807;28;19968;-55
2022/03/01 05:20:30;;;;;;;;;;;;;;;;;;5112639;28;19908;-48
2022/03/01 05:22:56;;;;;;;;;;;;;;;;;;5112583;28;19956;-61
2022/03/01 05:25:23;;;;;;;;;;;;;;;;;;5113148;28;19908;-56
2022/03/01 05:27:50;;;;;;;;;;;;;;;;;;5115922;28;19959;-56
2022/03/01 05:30:16;;;;;;;;;;;;;;;;;;5115379;28;20407;-49
2022/03/01 05:32:46;;;;;;;;;;;;;;;;;;5116694;28;20298;-55
2022/03/01 05:35:13;;;;;;;;;;;;;;;;;;5116347;28;19931;-59
2022/03/01 05:37:39;;;;;;;;;;;;;;;;;;5115892;28;19915;-58
2022/03/01 05:40:06;;;;;;;;;;;;;;;;;;5116193;28;19908;-48
2022/03/01 05:42:32;;;;;;;;;;;;;;;;;;5116065;28;19916;-59
2022/03/01 05:44:59;;;;;;;;;;;;;;;;;;5115890;27;19935;-53
2022/03/01 05:47:26;;;;;;;;;;;;;;;;;;5116252;28;19908;-59
2022/03/01 05:49:52;;;;;;;;;;;;;;;;;;5115820;28;20278;-60
2022/03/01 05:52:19;;;;;;;;;;;;;;;;;;5116395;28;20265;-53
2022/03/01 05:54:45;;;;;;;;;;;;;;;;;;5115950;28;19954;-53
2022/03/01 05:57:12;;;;;;;;;;;;;;;;;;5115650;28;19912;-58
2022/03/01 05:59:38;;;;;;;;;;;;;;;;;;5115651;28;19908;-56
2022/03/01 06:02:05;;;;;;;;;;;;;;;;;;5115676;28;20346;-57
2022/03/01 06:04:31;;;;;;;;;;;;;;;;;;5115814;28;20365;-51
2022/03/01 06:06:58;;;;;;;;;;;;;;;;;;5115859;28;19968;-46
2022/03/01 06:09:24;;;;;;;;;;;;;;;;;;5115629;28;19914;-58
2022/03/01 06:11:51;;;;;;;;;;;;;;;;;;5115594;28;19915;-57
2022/03/01 06:14:17;;;;;;;;;;;;;;;;;;5115412;28;20315;-53
2022/03/01 06:16:44;;;;;;;;;;;;;;;;;;5096488;28;19920;-52
2022/03/01 06:19:11;;;;;;;;;;;;;;;;;;5093680;28;19999;-54
2022/03/01 06:21:37;;;;;;;;;;;;;;;;;;5093378;28;19916;-51
2022/03/01 06:24:04;;;;;;;;;;;;;;;;;;5095152;28;19912;-52
2022/03/01 06:26:30;;;;;;;;;;;;;;;;;;5094569;28;19908;-53
2022/03/01 06:28:57;;;;;;;;;;;;;;;;;;5095144;28;19913;-54
2022/03/01 06:31:23;;;;;;;;;;;;;;;;;;5094786;28;19908;-58
2022/03/01 06:33:50;;;;;;;;;;;;;;;;;;5094842;28;20270;-56
2022/03/01 06:36:16;;;;;;;;;;;;;;;;;;5094238;28;20277;-59
2022/03/01 06:38:43;;;;;;;;;;;;;;;;;;5093544;28;19976;-55
2022/03/01 06:41:09;;;;;;;;;;;;;;;;;;5094562;28;19941;-59
2022/03/01 06:43:36;;;;;;;;;;;;;;;;;;5093889;28;19908;-57
2022/03/01 06:46:02;;;;;;;;;;;;;;;;;;5093317;28;19966;-59
2022/03/01 06:48:29;;;;;;;;;;;;;;;;;;5093986;28;19977;-57
2022/03/01 06:50:55;;;;;;;;;;;;;;;;;;5094677;28;20087;-53
2022/03/01 06:53:22;;;;;;;;;;;;;;;;;;5094664;28;19912;-55
2022/03/01 06:55:48;;;;;;;;;;;;;;;;;;5094254;28;20006;-53
2022/03/01 06:58:14;;;;;;;;;;;;;;;;;;5093556;28;19920;-53
2022/03/01 07:00:41;;;;;;;;;;;;;;;;;;5093879;28;19920;-52
2022/03/01 07:03:07;;;;;;;;;;;;;;;;;;5094007;28;20000;-51
2022/03/01 07:05:34;;;;;;;;;;;;;;;;;;5094535;28;19909;-50
2022/03/01 07:08:00;;;;;;;;;;;;;;;;;;5093996;28;19921;-58
2022/03/01 07:10:27;;;;;;;;;;;;;;;;;;5093908;28;19908;-56
2022/03/01 07:12:53;;;;;;;;;;;;;;;;;;5093571;28;19908;-57
2022/03/01 07:15:20;;;;;;;;;;;;;;;;;;5094156;28;19953;-55
2022/03/01 07:17:46;;;;;;;;;;;;;;;;;;5094303;28;19908;-52
2022/03/01 07:20:13;;;;;;;;;;;;;;;;;;5093426;28;20289;-52
2022/03/01 07:22:39;;;;;;;;;;;;;;;;;;5093726;28;19916;-59
2022/03/01 07:25:06;;;;;;;;;;;;;;;;;;5093560;28;20435;-57
2022/03/01 07:27:32;;;;;;;;;;;;;;;;;;5093517;28;19997;-54
2022/03/01 07:29:59;;;;;;;;;;;;;;;;;;5094082;28;19970;-51
2022/03/01 07:32:25;;;;;;;;;;;;;;;;;;5093571;28;19908;-54
2022/03/01 07:34:52;;;;;;;;;;;;;;;;;;5093971;28;19912;-60
2022/03/01 07:37:18;;;;;;;;;;;;;;;;;;5093934;28;20278;-56
2022/03/01 07:39:44;;;;;;;;;;;;;;;;;;5093878;28;19915;-58
2022/03/01 07:42:11;;;;;;;;;;;;;;;;;;5092823;28;19920;-52
2022/03/01 07:44:37;;;;;;;;;;;;;;;;;;5093845;28;19955;-50
2022/03/01 07:47:04;;;;;;;;;;;;;;;;;;5085057;28;19944;-49
2022/03/01 07:49:30;;;;;;;;;;;;;;;;;;5091137;28;19912;-45
2022/03/01 07:51:57;;;;;;;;;;;;;;;;;;5091384;28;19921;-44
2022/03/01 07:54:23;;;;;;;;;;;;;;;;;;5090385;28;19915;-45
2022/03/01 07:56:50;;;;;;;;;;;;;;;;;;5089011;28;20015;-45
2022/03/01 07:59:16;;;;;;;;;;;;;;;;;;5089572;28;19928;-44
2022/03/01 08:01:43;;;;;;;;;;;;;;;;;;5090182;28;19941;-51
2022/03/01 08:04:09;;;;;;;;;;;;;;;;;;5089925;28;19908;-41
2022/03/01 08:06:35;;;;;;;;;;;;;;;;;;5087867;28;19982;-43
2022/03/01 08:09:02;;;;;;;;;;;;;;;;;;5088454;28;19908;-46
2022/03/01 08:11:28;;;;;;;;;;;;;;;;;;5089910;28;19990;-48
2022/03/01 08:13:58;;;;;;;;;;;;;;;;;;5086885;28;19919;-48
2022/03/01 08:16:24;;;;;;;;;;;;;;;;;;5087925;28;19912;-54
2022/03/01 08:18:51;;;;;;;;;;;;;;;;;;5089937;28;19915;-55
2022/03/01 08:21:17;;;;;;;;;;;;;;;;;;5089867;28;19924;-54
2022/03/01 08:23:44;;;;;;;;;;;;;;;;;;5090296;28;19915;-48
2022/03/01 08:26:10;;;;;;;;;;;;;;;;;;5086708;28;19950;-54
2022/03/01 08:28:37;;;;;;;;;;;;;;;;;;5088813;28;19916;-51
2022/03/01 08:31:03;;;;;;;;;;;;;;;;;;5088739;28;19912;-51
2022/03/01 08:33:30;;;;;;;;;;;;;;;;;;5089730;28;19913;-53
2022/03/01 08:35:57;;;;;;;;;;;;;;;;;;5086367;28;19908;-50
2022/03/01 08:38:23;;;;;;;;;;;;;;;;;;5089320;28;20013;-55
2022/03/01 08:40:50;;;;;;;;;;;;;;;;;;5089695;28;19924;-58
2022/03/01 08:43:16;;;;;;;;;;;;;;;;;;5089012;28;19909;-59
2022/03/01 08:45:44;;;;;;;;;;;;;;;;;;5084349;28;19939;-57
2022/03/01 08:48:11;;;;;;;;;;;;;;;;;;5087428;28;19915;-61
2022/03/01 08:50:37;;;;;;;;;;;;;;;;;;5090208;28;20398;-57
2022/03/01 08:53:04;;;;;;;;;;;;;;;;;;5086883;28;20323;-54
2022/03/01 08:55:30;;;;;;;;;;;;;;;;;;5085173;28;19923;-53
2022/03/01 08:57:57;;;;;;;;;;;;;;;;;;5089596;28;19972;-57
2022/03/01 09:00:24;;;;;;;;;;;;;;;;;;5087227;28;19931;-53
2022/03/01 09:02:50;;;;;;;;;;;;;;;;;;5089824;28;19917;-50
2022/03/01 09:05:16;;;;;;;;;;;;;;;;;;5092386;28;20035;-51
2022/03/01 09:07:43;;;;;;;;;;;;;;;;;;5089955;28;20361;-52
2022/03/01 09:10:09;;;;;;;;;;;;;;;;;;5090807;28;19915;-63
2022/03/01 09:12:36;;;;;;;;;;;;;;;;;;5091488;28;19908;-52
2022/03/01 09:15:02;;;;;;;;;;;;;;;;;;5092728;28;19908;-52
2022/03/01 09:17:29;;;;;;;;;;;;;;;;;;5088380;28;20354;-49
2022/03/01 09:19:55;;;;;;;;;;;;;;;;;;5092513;28;19907;-56
2022/03/01 09:22:22;;;;;;;;;;;;;;;;;;5093186;28;19924;-50
2022/03/01 09:24:49;;;;;;;;;;;;;;;;;;5093302;28;19931;-58
2022/03/01 09:27:15;;;;;;;;;;;;;;;;;;5090160;28;20388;-55
2022/03/01 09:29:42;;;;;;;;;;;;;;;;;;5092768;28;19969;-54
2022/03/01 09:32:09;;;;;;;;;;;;;;;;;;5092859;28;19961;-51
2022/03/01 09:34:35;;;;;;;;;;;;;;;;;;5093129;28;19908;-60
2022/03/01 09:37:01;;;;;;;;;;;;;;;;;;5089478;28;19966;-59
2022/03/01 09:39:28;;;;;;;;;;;;;;;;;;5092778;28;19922;-58
2022/03/01 09:41:55;;;;;;;;;;;;;;;;;;5092371;28;20294;-65
2022/03/01 09:44:21;;;;;;;;;;;;;;;;;;5092651;28;19927;-55
2022/03/01 09:46:48;;;;;;;;;;;;;;;;;;5089850;28;19908;-54
2022/03/01 09:49:16;;;;;;;;;;;;;;;;;;5092589;28;19916;-57
2022/03/01 09:51:42;;;;;;;;;;;;;;;;;;5092217;28;20391;-54
2022/03/01 09:54:09;;;;;;;;;;;;;;;;;;5092411;28;20350;-50
2022/03/01 09:56:36;;;;;;;;;;;;;;;;;;5088851;28;19912;-51
2022/03/01 09:59:03;;;;;;;;;;;;;;;;;;5092382;28;19931;-50
2022/03/01 10:01:29;;;;;;;;;;;;;;;;;;5092474;28;19916;-53
2022/03/01 10:03:56;;;;;;;;;;;;;;;;;;5092051;28;20338;-50
2022/03/01 10:06:22;;;;;;;;;;;;;;;;;;5088393;28;20319;-56
2022/03/01 10:08:52;;;;;;;;;;;;;;;;;;5091660;28;19912;-50
2022/03/01 10:11:18;;;;;;;;;;;;;;;;;;5091886;28;19908;-53
2022/03/01 10:13:45;;;;;;;;;;;;;;;;;;5089917;28;19908;-52
2022/03/01 10:16:11;;;;;;;;;;;;;;;;;;5087963;28;19912;-54
2022/03/01 10:18:38;;;;;;;;;;;;;;;;;;5092040;28;20366;-57
2022/03/01 10:21:04;;;;;;;;;;;;;;;;;;5090993;28;19921;-51
2022/03/01 10:23:31;;;;;;;;;;;;;;;;;;5091184;28;20066;-52
2022/03/01 10:25:58;;;;;;;;;;;;;;;;;;5089377;28;19912;-50
2022/03/01 10:28:24;;;;;;;;;;;;;;;;;;5091716;28;20003;-56
2022/03/01 10:30:51;;;;;;;;;;;;;;;;;;5089965;28;20103;-53
2022/03/01 10:33:19;;;;;;;;;;;;;;;;;;5091670;28;19912;-57
2022/03/01 10:35:45;;;;;;;;;;;;;;;;;;5088983;28;19911;-55
2022/03/01 10:38:12;;;;;;;;;;;;;;;;;;5091160;28;19912;-50
2022/03/01 10:40:38;;;;;;;;;;;;;;;;;;5091908;28;20305;-50
2022/03/01 10:43:05;;;;;;;;;;;;;;;;;;5091935;28;20007;-49
2022/03/01 10:45:32;;;;;;;;;;;;;;;;;;5090280;28;19920;-49
2022/03/01 10:47:58;;;;;;;;;;;;;;;;;;5091121;28;19908;-51
2022/03/01 10:50:25;;;;;;;;;;;;;;;;;;5091571;28;20422;-50
2022/03/01 10:52:51;;;;;;;;;;;;;;;;;;5091873;28;20014;-53
2022/03/01 10:55:17;;;;;;;;;;;;;;;;;;5090598;28;19934;-50
2022/03/01 10:57:44;;;;;;;;;;;;;;;;;;5089586;28;19920;-53
2022/03/01 11:00:10;;;;;;;;;;;;;;;;;;5090526;28;20004;-48
2022/03/01 11:02:37;;;;;;;;;;;;;;;;;;5091839;28;19970;-61
2022/03/01 11:05:03;;;;;;;;;;;;;;;;;;5090229;28;19995;-54
2022/03/01 11:07:30;;;;;;;;;;;;;;;;;;5088858;28;19941;-61
2022/03/01 11:09:56;;;;;;;;;;;;;;;;;;5091659;28;19909;-46
2022/03/01 11:12:23;;;;;;;;;;;;;;;;;;5091434;28;19915;-50
2022/03/01 11:14:49;;;;;;;;;;;;;;;;;;5090806;28;19919;-53
2022/03/01 11:17:16;;;;;;;;;;;;;;;;;;5088216;28;20363;-48
2022/03/01 11:19:42;;;;;;;;;;;;;;;;;;5091376;28;20357;-48
2022/03/01 11:22:09;;;;;;;;;;;;;;;;;;5090876;28;20381;-55
2022/03/01 11:24:35;;;;;;;;;;;;;;;;;;5090049;28;20278;-47
2022/03/01 11:27:02;;;;;;;;;;;;;;;;;;5088429;28;19912;-50
2022/03/01 11:29:28;;;;;;;;;;;;;;;;;;5091158;28;19908;-51
2022/03/01 11:31:54;;;;;;;;;;;;;;;;;;5091413;28;19912;-53
2022/03/01 11:34:21;;;;;;;;;;;;;;;;;;5090409;28;19908;-53
2022/03/01 11:36:48;;;;;;;;;;;;;;;;;;5088393;28;19908;-50
2022/03/01 11:39:14;;;;;;;;;;;;;;;;;;5089258;28;19912;-52
2022/03/01 11:41:41;;;;;;;;;;;;;;;;;;5091019;28;19916;-54
2022/03/01 11:44:07;;;;;;;;;;;;;;;;;;5091085;28;20431;-56
2022/03/01 11:46:34;;;;;;;;;;;;;;;;;;5087945;28;20350;-49
2022/03/01 11:49:00;;;;;;;;;;;;;;;;;;5090546;28;19961;-53
2022/03/01 11:51:26;;;;;;;;;;;;;;;;;;5089855;28;19943;-52
2022/03/01 11:53:53;;;;;;;;;;;;;;;;;;5091038;28;19961;-50
2022/03/01 11:56:19;;;;;;;;;;;;;;;;;;5086525;28;19918;-55
2022/03/01 11:58:46;;;;;;;;;;;;;;;;;;5090416;28;20428;-50
2022/03/01 12:01:12;;;;;;;;;;;;;;;;;;5088054;28;20339;-50
2022/03/01 12:03:56;;;;;;;;;;;;;;;;;;5108383;27;19916;-50
2022/03/01 12:06:23;;;;;;;;;;;;;;;;;;5105254;28;19912;-49
2022/03/01 12:08:49;;;;;;;;;;;;;;;;;;5108507;28;20003;-57
2022/03/01 12:11:16;;;;;;;;;;;;;;;;;;5107234;28;20254;-55
2022/03/01 12:13:42;;;;;;;;;;;;;;;;;;5107221;28;19957;-58
2022/03/01 12:16:09;;;;;;;;;;;;;;;;;;5103771;28;19958;-59
2022/03/01 12:18:35;;;;;;;;;;;;;;;;;;5108563;28;19937;-53
2022/03/01 12:21:02;;;;;;;;;;;;;;;;;;5107769;28;19998;-56
2022/03/01 12:23:29;;;;;;;;;;;;;;;;;;5106630;28;20349;-52
2022/03/01 12:25:55;;;;;;;;;;;;;;;;;;5103687;28;20299;-55
2022/03/01 12:28:22;;;;;;;;;;;;;;;;;;5107905;28;20024;-53
2022/03/01 12:30:48;;;;;;;;;;;;;;;;;;5107922;28;19915;-61
2022/03/01 12:33:18;;;;;;;;;;;;;;;;;;5106653;28;19959;-48
2022/03/01 12:35:44;;;;;;;;;;;;;;;;;;5104882;28;19927;-52
2022/03/01 12:38:11;;;;;;;;;;;;;;;;;;5105706;28;20285;-53
2022/03/01 12:40:37;;;;;;;;;;;;;;;;;;5107918;28;20354;-55
2022/03/01 12:43:04;;;;;;;;;;;;;;;;;;5105013;28;20007;-56
2022/03/01 12:45:30;;;;;;;;;;;;;;;;;;5104947;28;20473;-53
2022/03/01 12:47:57;;;;;;;;;;;;;;;;;;5102594;28;19912;-58
2022/03/01 12:50:23;;;;;;;;;;;;;;;;;;5106302;28;19908;-50
2022/03/01 12:52:50;;;;;;;;;;;;;;;;;;5106708;28;19912;-51
2022/03/01 12:55:16;;;;;;;;;;;;;;;;;;5105929;28;20030;-55
2022/03/01 12:57:43;;;;;;;;;;;;;;;;;;5103930;28;19981;-47
2022/03/01 13:00:09;;;;;;;;;;;;;;;;;;5106057;28;19915;-56
2022/03/01 13:02:35;;;;;;;;;;;;;;;;;;5107149;28;20022;-51
2022/03/01 13:05:03;;;;;;;;;;;;;;;;;;5105544;28;19957;-58
2022/03/01 13:07:30;;;;;;;;;;;;;;;;;;5103257;28;19954;-53
2022/03/01 13:09:56;;;;;;;;;;;;;;;;;;5105124;28;19927;-51
2022/03/01 13:12:23;;;;;;;;;;;;;;;;;;5106041;28;20010;-54
2022/03/01 13:14:49;;;;;;;;;;;;;;;;;;5095970;28;19912;-57
2022/03/01 13:17:16;;;;;;;;;;;;;;;;;;5116096;28;19911;-58
2022/03/01 13:19:44;;;;;;;;;;;;;;;;;;5100204;28;20463;-60
2022/03/01 13:22:10;;;;;;;;;;;;;;;;;;5090866;28;19912;-59
2022/03/01 13:24:37;;;;;;;;;;;;;;;;;;5092288;28;20630;-58
2022/03/01 13:27:03;;;;;;;;;;;;;;;;;;5094303;28;19966;-52
2022/03/01 13:29:30;;;;;;;;;;;;;;;;;;5091333;28;19923;-58
2022/03/01 13:31:56;;;;;;;;;;;;;;;;;;5091681;28;19923;-58
2022/03/01 13:34:23;;;;;;;;;;;;;;;;;;5092473;28;19908;-58
2022/03/01 13:36:49;;;;;;;;;;;;;;;;;;5092431;28;19952;-53
2022/03/01 13:39:16;;;;;;;;;;;;;;;;;;5091029;28;19972;-58
2022/03/01 13:41:42;;;;;;;;;;;;;;;;;;5091733;28;19916;-59
2022/03/01 13:44:09;;;;;;;;;;;;;;;;;;5092394;28;19914;-58
2022/03/01 13:46:35;;;;;;;;;;;;;;;;;;5092512;28;19934;-53
2022/03/01 13:49:02;;;;;;;;;;;;;;;;;;5091183;28;19919;-50
2022/03/01 13:51:28;;;;;;;;;;;;;;;;;;5091176;28;19949;-50
2022/03/01 13:53:54;;;;;;;;;;;;;;;;;;5091855;28;19958;-49
2022/03/01 13:56:21;;;;;;;;;;;;;;;;;;5092313;28;20331;-53
2022/03/01 13:58:48;;;;;;;;;;;;;;;;;;5091308;28;19909;-52
2022/03/01 14:01:14;;;;;;;;;;;;;;;;;;5089506;28;19908;-54
2022/03/01 14:03:41;;;;;;;;;;;;;;;;;;5092265;28;20011;-50
2022/03/01 14:06:08;;;;;;;;;;;;;;;;;;5092085;28;19908;-53
2022/03/01 14:08:35;;;;;;;;;;;;;;;;;;5091049;28;20285;-50
2022/03/01 14:11:01;;;;;;;;;;;;;;;;;;5089275;28;19927;-54
2022/03/01 14:13:28;;;;;;;;;;;;;;;;;;5091935;28;19916;-51
2022/03/01 14:15:54;;;;;;;;;;;;;;;;;;5091022;28;19966;-53
2022/03/01 14:18:21;;;;;;;;;;;;;;;;;;5092093;28;19966;-55
2022/03/01 14:20:48;;;;;;;;;;;;;;;;;;5088757;28;19908;-58
2022/03/01 14:23:14;;;;;;;;;;;;;;;;;;5091435;28;19920;-52
2022/03/01 14:25:41;;;;;;;;;;;;;;;;;;5089886;28;20003;-53
2022/03/01 14:28:07;;;;;;;;;;;;;;;;;;5091606;28;19908;-54
2022/03/01 14:30:34;;;;;;;;;;;;;;;;;;5089053;28;19915;-54
2022/03/01 14:33:03;;;;;;;;;;;;;;;;;;5091297;28;19974;-53
2022/03/01 14:35:30;;;;;;;;;;;;;;;;;;5090946;28;19940;-54
2022/03/01 14:37:56;;;;;;;;;;;;;;;;;;5091288;28;19908;-55
2022/03/01 14:40:22;;;;;;;;;;;;;;;;;;5088890;28;19916;-54
2022/03/01 14:42:49;;;;;;;;;;;;;;;;;;5090371;28;19916;-58
2022/03/01 14:45:15;;;;;;;;;;;;;;;;;;5091076;28;19908;-53
2022/03/01 14:47:42;;;;;;;;;;;;;;;;;;5092271;28;19908;-55
2022/03/01 14:50:08;;;;;;;;;;;;;;;;;;5088767;28;20388;-55
2022/03/01 14:52:35;;;;;;;;;;;;;;;;;;5090834;28;19996;-53
2022/03/01 14:55:01;;;;;;;;;;;;;;;;;;5090677;28;19908;-59
2022/03/01 14:57:28;;;;;;;;;;;;;;;;;;5091428;28;19951;-55
2022/03/01 14:59:54;;;;;;;;;;;;;;;;;;5088277;28;19908;-53
2022/03/01 15:02:22;;;;;;;;;;;;;;;;;;5090805;28;20366;-55
2022/03/01 15:04:50;;;;;;;;;;;;;;;;;;5090417;28;19916;-54
2022/03/01 15:07:17;;;;;;;;;;;;;;;;;;5092849;28;19935;-58
2022/03/01 15:09:44;;;;;;;;;;;;;;;;;;5093775;28;19919;-55
2022/03/01 15:12:10;;;;;;;;;;;;;;;;;;5093886;28;19962;-60
2022/03/01 15:14:37;;;;;;;;;;;;;;;;;;5094066;28;19919;-57
2022/03/01 15:17:03;;;;;;;;;;;;;;;;;;5093608;28;20040;-58
2022/03/01 15:19:32;;;;;;;;;;;;;;;;;;5093774;28;19912;-59
2022/03/01 15:21:58;;;;;;;;;;;;;;;;;;5093736;28;19932;-57
2022/03/01 15:24:25;;;;;;;;;;;;;;;;;;5093651;28;19916;-58
2022/03/01 15:26:51;;;;;;;;;;;;;;;;;;5093607;28;19962;-57
2022/03/01 15:29:17;;;;;;;;;;;;;;;;;;5093695;28;19943;-57
2022/03/01 15:31:44;;;;;;;;;;;;;;;;;;5093590;28;19912;-59
2022/03/01 15:34:10;;;;;;;;;;;;;;;;;;5092910;28;19908;-60
2022/03/01 15:36:37;;;;;;;;;;;;;;;;;;5093416;28;19919;-59
2022/03/01 15:39:03;;;;;;;;;;;;;;;;;;5093270;28;19908;-58
2022/03/01 15:41:30;;;;;;;;;;;;;;;;;;5093949;28;19908;-58
2022/03/01 15:43:56;;;;;;;;;;;;;;;;;;5093626;28;20510;-57
2022/03/01 15:46:23;;;;;;;;;;;;;;;;;;5093691;28;19953;-58
2022/03/01 15:48:49;;;;;;;;;;;;;;;;;;5093314;28;19908;-55
2022/03/01 15:51:16;;;;;;;;;;;;;;;;;;5093419;28;19934;-59
2022/03/01 15:53:42;;;;;;;;;;;;;;;;;;5093324;28;19915;-57
2022/03/01 15:56:09;;;;;;;;;;;;;;;;;;5093556;28;19918;-57
2022/03/01 15:58:35;;;;;;;;;;;;;;;;;;5093242;28;20009;-56
2022/03/01 16:01:01;;;;;;;;;;;;;;;;;;5091595;28;19908;-54
2022/03/01 16:03:28;;;;;;;;;;;;;;;;;;5092944;28;19928;-49
2022/03/01 16:05:54;;;;;;;;;;;;;;;;;;5093090;28;19915;-52
2022/03/01 16:08:22;;;;;;;;;;;;;;;;;;5093073;28;19994;-48
2022/03/01 16:10:48;;;;;;;;;;;;;;;;;;5092895;28;19997;-54
2022/03/01 16:13:15;;;;;;;;;;;;;;;;;;5093056;28;19953;-52
2022/03/01 16:15:41;;;;;;;;;;;;;;;;;;5093098;28;19909;-51
2022/03/01 16:18:07;;;;;;;;;;;;;;;;;;5093073;28;19908;-50
2022/03/01 16:20:34;;;;;;;;;;;;;;;;;;5093142;28;19912;-52
2022/03/01 16:23:00;;;;;;;;;;;;;;;;;;5092577;28;20366;-58
2022/03/01 16:25:27;;;;;;;;;;;;;;;;;;5093167;28;20324;-51
2022/03/01 16:27:53;;;;;;;;;;;;;;;;;;5093008;28;19908;-56
2022/03/01 16:30:20;;;;;;;;;;;;;;;;;;5093140;28;19909;-51
2022/03/01 16:32:46;;;;;;;;;;;;;;;;;;5092866;28;19970;-55
2022/03/01 16:35:13;;;;;;;;;;;;;;;;;;5093091;28;19915;-58
2022/03/01 16:37:39;;;;;;;;;;;;;;;;;;5092939;28;19915;-57
2022/03/01 16:40:06;;;;;;;;;;;;;;;;;;5093058;28;19953;-54